createdAt,value
2023-03-25T00:04:08.607Z,31.72
2023-03-25T00:09:10.368Z,31.34
2023-03-25T00:14:12.270Z,31.41
2023-03-25T00:19:15.541Z,31.51
2023-03-25T00:24:17.820Z,31.42
2023-03-25T00:29:19.223Z,31.22
2023-03-25T00:34:20.642Z,31.13
2023-03-25T00:39:22.009Z,31.30
2023-03-25T00:44:23.424Z,31.33
2023-03-25T00:49:24.993Z,30.97
2023-03-25T00:54:26.371Z,31.10
2023-03-25T00:59:27.769Z,31.20
2023-03-25T01:04:29.618Z,31.21
2023-03-25T01:09:31.264Z,31.12
2023-03-25T01:14:32.681Z,31.15
2023-03-25T01:19:34.056Z,31.00
2023-03-25T01:24:35.647Z,31.05
2023-03-25T01:29:37.106Z,30.98
2023-03-25T01:34:38.585Z,30.99
2023-03-25T01:39:40.163Z,31.00
2023-03-25T01:44:44.266Z,30.93
2023-03-25T01:49:45.814Z,31.13
2023-03-25T01:54:47.266Z,31.09
2023-03-25T01:59:48.642Z,30.99
2023-03-25T02:04:58.892Z,30.94
2023-03-25T02:10:02.214Z,31.14
2023-03-25T02:15:05.886Z,30.85
2023-03-25T02:20:35.889Z,30.93
2023-03-25T02:26:32.736Z,30.99
2023-03-25T02:31:49.255Z,30.98
2023-03-25T02:37:00.039Z,30.66
2023-03-25T02:42:24.354Z,30.90
2023-03-25T02:47:27.801Z,30.79
2023-03-25T02:52:38.101Z,30.59
2023-03-25T02:57:41.611Z,30.91
2023-03-25T03:03:00.373Z,30.93
2023-03-25T03:08:19.513Z,30.76
2023-03-25T03:14:02.381Z,30.75
2023-03-25T03:19:13.705Z,30.83
2023-03-25T03:24:19.218Z,30.85
2023-03-25T03:29:26.275Z,30.94
2023-03-25T03:34:32.439Z,30.92
2023-03-25T03:39:36.833Z,30.75
2023-03-25T03:44:38.796Z,30.62
2023-03-25T03:49:46.647Z,30.66
2023-03-25T03:54:56.681Z,30.42
2023-03-25T04:00:03.883Z,30.52
2023-03-25T04:05:11.297Z,30.52
2023-03-25T04:10:18.857Z,30.46
2023-03-25T04:15:20.258Z,30.36
2023-03-25T04:20:23.779Z,30.15
2023-03-25T04:25:25.534Z,30.38
2023-03-25T04:30:27.725Z,30.18
2023-03-25T04:35:29.229Z,30.19
2023-03-25T04:40:30.790Z,30.22
2023-03-25T04:45:36.219Z,30.25
2023-03-25T04:50:37.594Z,30.35
2023-03-25T04:55:47.804Z,30.18
2023-03-25T05:00:51.215Z,30.29
2023-03-25T05:05:53.311Z,30.09
2023-03-25T05:10:55.105Z,29.94
2023-03-25T05:15:56.536Z,30.24
2023-03-25T05:20:57.998Z,29.97
2023-03-25T05:25:59.759Z,29.88
2023-03-25T05:31:01.294Z,29.88
2023-03-25T05:36:04.186Z,29.88
2023-03-25T05:41:10.502Z,29.65
2023-03-25T05:46:12.034Z,29.51
2023-03-25T05:51:18.419Z,29.06
2023-03-25T05:56:21.124Z,29.27
2023-03-25T06:01:32.660Z,29.08
2023-03-25T06:06:35.919Z,28.78
2023-03-25T06:11:40.198Z,28.50
2023-03-25T06:16:41.592Z,28.80
2023-03-25T06:21:43.410Z,28.56
2023-03-25T06:26:44.785Z,28.68
2023-03-25T06:31:46.171Z,28.58
2023-03-25T06:36:49.918Z,28.71
2023-03-25T06:41:51.378Z,28.76
2023-03-25T06:46:52.938Z,28.76
2023-03-25T06:51:54.324Z,28.58
2023-03-25T06:56:55.770Z,28.57
2023-03-25T07:01:57.336Z,28.54
2023-03-25T07:06:58.742Z,28.27
2023-03-25T07:12:00.182Z,28.19
2023-03-25T07:17:01.565Z,28.09
2023-03-25T07:22:02.942Z,27.97
2023-03-25T07:27:04.392Z,28.14
2023-03-25T07:32:06.215Z,28.00
2023-03-25T07:37:10.707Z,27.73
2023-03-25T07:42:12.108Z,27.89
2023-03-25T07:47:13.492Z,27.74
2023-03-25T07:52:14.870Z,27.93
2023-03-25T07:57:16.376Z,27.88
2023-03-25T08:02:17.806Z,27.95
2023-03-25T08:07:19.234Z,28.10
2023-03-25T08:12:20.808Z,28.59
2023-03-25T08:17:22.662Z,29.25
2023-03-25T08:22:24.055Z,29.32
2023-03-25T08:27:25.819Z,29.43
2023-03-25T08:32:28.048Z,29.50
2023-03-25T08:37:30.736Z,29.70
2023-03-25T08:42:32.119Z,30.22
2023-03-25T08:47:33.614Z,30.68
2023-03-25T08:52:35.011Z,30.89
2023-03-25T08:57:37.634Z,31.47
2023-03-25T09:02:39.065Z,31.40
2023-03-25T09:07:40.479Z,31.56
2023-03-25T09:12:42.028Z,31.52
2023-03-25T09:17:43.457Z,31.70
2023-03-25T09:22:44.935Z,31.58
2023-03-25T09:27:46.323Z,31.70
2023-03-25T09:32:47.744Z,31.34
2023-03-25T09:37:51.834Z,31.46
2023-03-25T09:43:01.550Z,31.35
2023-03-25T09:48:12.944Z,31.50
2023-03-25T09:53:27.210Z,31.75
2023-03-25T09:58:48.364Z,31.97
2023-03-25T10:03:58.072Z,32.28
2023-03-25T10:09:18.261Z,32.22
2023-03-25T10:14:58.395Z,32.53
2023-03-25T10:20:27.404Z,32.46
2023-03-25T10:25:30.324Z,32.69
2023-03-25T10:30:36.399Z,32.41
2023-03-25T10:35:40.673Z,32.61
2023-03-25T10:40:49.870Z,32.24
2023-03-25T10:45:53.353Z,32.10
2023-03-25T10:51:19.054Z,31.75
2023-03-25T10:56:21.889Z,31.03
2023-03-25T11:01:38.115Z,30.51
2023-03-25T11:06:45.776Z,30.15
2023-03-25T11:11:47.592Z,30.03
2023-03-25T11:16:58.110Z,29.89
2023-03-25T11:22:02.479Z,29.47
2023-03-25T11:27:03.966Z,29.54
2023-03-25T11:32:16.271Z,29.42
2023-03-25T11:37:19.175Z,29.54
2023-03-25T11:42:38.506Z,30.19
2023-03-25T11:47:41.012Z,30.37
2023-03-25T11:52:45.798Z,30.01
2023-03-25T11:57:47.674Z,30.11
2023-03-25T12:02:49.081Z,30.01
2023-03-25T12:07:51.480Z,29.93
2023-03-25T12:13:07.830Z,29.89
2023-03-25T12:18:16.407Z,29.51
2023-03-25T12:23:38.873Z,29.25
2023-03-25T12:29:17.227Z,28.51
2023-03-25T12:34:23.284Z,28.57
2023-03-25T12:39:35.786Z,28.54
2023-03-25T12:44:50.713Z,28.30
2023-03-25T12:50:04.053Z,28.18
2023-03-25T12:55:42.898Z,28.88
2023-03-25T13:01:18.468Z,29.71
2023-03-25T13:06:44.470Z,30.11
2023-03-25T13:11:49.334Z,29.78
2023-03-25T13:16:51.796Z,29.65
2023-03-25T13:21:57.250Z,29.77
2023-03-25T13:26:58.690Z,29.57
2023-03-25T13:32:02.038Z,29.26
2023-03-25T13:37:08.799Z,29.14
2023-03-25T13:42:15.589Z,29.07
2023-03-25T13:47:31.988Z,28.98
2023-03-25T13:52:39.514Z,28.79
2023-03-25T13:58:09.026Z,28.83
2023-03-25T14:03:13.008Z,28.65
2023-03-25T14:08:33.519Z,28.46
2023-03-25T14:13:45.930Z,28.05
2023-03-25T14:18:49.371Z,28.13
2023-03-25T14:24:00.713Z,27.73
2023-03-25T14:29:08.103Z,27.60
2023-03-25T14:34:09.302Z,27.44
2023-03-25T14:39:12.386Z,27.28
2023-03-25T14:44:18.416Z,27.59
2023-03-25T14:49:23.231Z,28.41
2023-03-25T14:54:27.771Z,28.95
2023-03-25T14:59:36.861Z,29.37
2023-03-25T15:04:38.277Z,29.39
2023-03-25T15:09:49.612Z,29.51
2023-03-25T15:14:54.699Z,29.32
2023-03-25T15:20:23.020Z,29.08
2023-03-25T15:25:24.403Z,29.21
2023-03-25T15:30:32.017Z,29.44
2023-03-25T15:35:50.725Z,29.16
2023-03-25T15:41:02.357Z,29.00
2023-03-25T15:46:24.606Z,28.72
2023-03-25T15:51:39.694Z,28.05
2023-03-25T15:56:42.248Z,28.17
2023-03-25T16:01:44.442Z,27.79
2023-03-25T16:06:47.333Z,27.67
2023-03-25T16:11:48.711Z,27.42
2023-03-25T16:16:55.031Z,27.40
2023-03-25T16:21:56.467Z,27.40
2023-03-25T16:26:57.839Z,27.21
2023-03-25T16:32:01.375Z,27.27
2023-03-25T16:37:02.763Z,27.08
2023-03-25T16:42:06.786Z,27.01
2023-03-25T16:47:09.159Z,27.27
2023-03-25T16:52:14.202Z,26.94
2023-03-25T16:57:17.599Z,26.94
2023-03-25T17:02:40.674Z,26.84
2023-03-25T17:07:42.485Z,26.97
2023-03-25T17:12:43.858Z,26.91
2023-03-25T17:17:49.420Z,26.99
2023-03-25T17:22:59.499Z,26.93
2023-03-25T17:28:18.242Z,27.04
2023-03-25T17:33:20.348Z,26.94
2023-03-25T17:38:41.922Z,27.17
2023-03-25T17:43:45.184Z,27.01
2023-03-25T17:48:46.855Z,27.06
2023-03-25T17:53:48.573Z,27.07
2023-03-25T17:58:49.948Z,27.11
2023-03-25T18:03:51.642Z,27.11
2023-03-25T18:08:53.066Z,27.11
2023-03-25T18:13:54.590Z,27.08
2023-03-25T18:18:56.001Z,27.11
2023-03-25T18:23:57.406Z,26.90
2023-03-25T18:28:58.838Z,27.09
2023-03-25T18:34:00.218Z,27.12
2023-03-25T18:39:01.907Z,27.12
2023-03-25T18:44:03.287Z,27.29
2023-03-25T18:49:11.055Z,27.24
2023-03-25T18:54:12.473Z,27.28
2023-03-25T18:59:16.321Z,27.40
2023-03-25T19:04:18.120Z,27.30
2023-03-25T19:09:22.490Z,27.24
2023-03-25T19:14:23.906Z,27.37
2023-03-25T19:19:25.327Z,27.56
2023-03-25T19:24:27.190Z,27.64
2023-03-25T19:29:29.129Z,27.66
2023-03-25T19:34:31.254Z,27.54
2023-03-25T19:39:32.734Z,27.74
2023-03-25T19:44:34.123Z,27.67
2023-03-25T19:49:40.055Z,27.62
2023-03-25T19:54:42.010Z,27.66
2023-03-25T19:59:44.104Z,27.68
2023-03-25T20:04:45.549Z,28.17
2023-03-25T20:09:46.928Z,28.54
2023-03-25T20:14:48.325Z,28.49
2023-03-25T20:19:49.746Z,28.87
2023-03-25T20:24:51.116Z,28.96
2023-03-25T20:29:52.504Z,28.97
2023-03-25T20:34:53.939Z,28.96
2023-03-25T20:39:55.325Z,28.92
2023-03-25T20:44:56.713Z,29.13
2023-03-25T20:49:58.519Z,29.13
2023-03-25T20:54:59.966Z,29.24
2023-03-25T21:00:01.350Z,29.33
2023-03-25T21:05:03.643Z,29.24
2023-03-25T21:10:06.507Z,29.43
2023-03-25T21:15:09.076Z,29.24
2023-03-25T21:20:10.737Z,29.14
2023-03-25T21:25:14.036Z,29.25
2023-03-25T21:30:15.504Z,29.37
2023-03-25T21:35:17.048Z,29.37
2023-03-25T21:40:18.651Z,29.43
2023-03-25T21:45:20.132Z,29.26
2023-03-25T21:50:21.527Z,29.17
2023-03-25T21:55:22.948Z,29.12
2023-03-25T22:00:25.295Z,29.13
2023-03-25T22:05:31.026Z,29.03
2023-03-25T22:10:32.773Z,28.81
2023-03-25T22:15:34.434Z,28.80
2023-03-25T22:20:36.965Z,28.64
2023-03-25T22:25:38.551Z,28.57
2023-03-25T22:30:39.986Z,28.48
2023-03-25T22:35:41.503Z,28.37
2023-03-25T22:40:42.913Z,28.33
2023-03-25T22:45:44.299Z,28.38
2023-03-25T22:50:45.790Z,28.27
2023-03-25T22:55:54.888Z,28.26
2023-03-25T23:00:57.327Z,28.16
2023-03-25T23:06:06.415Z,28.13
2023-03-25T23:11:11.635Z,28.20
2023-03-25T23:16:14.476Z,28.42
2023-03-25T23:21:17.831Z,28.47
2023-03-25T23:26:24.526Z,28.66
2023-03-25T23:31:27.872Z,28.45
2023-03-25T23:36:30.128Z,28.78
2023-03-25T23:41:31.529Z,28.84
2023-03-25T23:46:33.021Z,28.78
2023-03-25T23:51:37.678Z,28.79
2023-03-25T23:56:39.145Z,28.81
